createdAt,value
2023-02-01T00:00:13.433Z,2.11
2023-02-01T00:05:16.579Z,2.24
2023-02-01T00:10:19.549Z,2.05
2023-02-01T00:15:24.316Z,1.57
2023-02-01T00:20:27.196Z,2.10
2023-02-01T00:25:30.304Z,1.91
2023-02-01T00:30:33.295Z,1.81
2023-02-01T00:35:37.442Z,1.61
2023-02-01T00:40:40.287Z,1.65
2023-02-01T00:45:43.306Z,1.36
2023-02-01T00:50:46.590Z,1.55
2023-02-01T00:55:51.315Z,1.15
2023-02-01T01:01:09.917Z,1.66
2023-02-01T01:11:34.766Z,1.30
2023-02-01T01:16:38.040Z,1.74
2023-02-01T01:21:41.277Z,1.71
2023-02-01T01:26:44.157Z,1.64
2023-02-01T01:31:47.124Z,2.22
2023-02-01T01:36:50.142Z,1.74
2023-02-01T01:41:53.065Z,2.23
2023-02-01T01:47:00.650Z,1.62
2023-02-01T01:52:05.024Z,1.55
2023-02-01T01:57:18.184Z,2.10
2023-02-01T02:02:21.114Z,1.50
2023-02-01T02:07:32.311Z,0.99
2023-02-01T02:12:35.273Z,1.19
2023-02-01T02:18:10.847Z,1.87
2023-02-01T02:23:38.819Z,2.06
2023-02-01T02:29:19.122Z,2.52
2023-02-01T02:34:27.493Z,2.23
2023-02-01T02:39:51.872Z,1.62
2023-02-01T02:45:24.774Z,1.42
2023-02-01T02:50:53.719Z,1.91
2023-02-01T02:56:17.466Z,1.76
2023-02-01T03:01:39.395Z,2.04
2023-02-01T03:06:42.756Z,2.11
2023-02-01T03:12:07.188Z,2.21
2023-02-01T03:17:20.521Z,2.58
2023-02-01T03:22:28.085Z,2.91
2023-02-01T03:27:44.336Z,3.22
2023-02-01T03:33:02.490Z,2.97
2023-02-01T03:38:24.178Z,3.09
2023-02-01T03:43:32.194Z,2.79
2023-02-01T03:48:37.255Z,2.61
2023-02-01T03:53:42.927Z,1.96
2023-02-01T03:59:00.350Z,2.48
2023-02-01T04:04:10.724Z,2.36
2023-02-01T04:09:15.922Z,2.64
2023-02-01T04:14:19.166Z,1.80
2023-02-01T04:19:21.986Z,2.43
2023-02-01T04:24:25.117Z,2.67
2023-02-01T04:29:28.098Z,2.25
2023-02-01T04:34:31.336Z,2.30
2023-02-01T04:39:34.658Z,2.92
2023-02-01T04:44:40.817Z,3.24
2023-02-01T04:49:43.917Z,2.32
2023-02-01T04:54:46.739Z,2.49
2023-02-01T04:59:49.790Z,2.77
2023-02-01T05:04:52.804Z,3.20
2023-02-01T05:09:55.864Z,2.92
2023-02-01T05:14:58.933Z,2.66
2023-02-01T05:20:01.893Z,2.92
2023-02-01T05:25:08.293Z,3.24
2023-02-01T05:30:12.430Z,3.78
2023-02-01T05:35:15.482Z,4.19
2023-02-01T05:40:18.919Z,5.10
2023-02-01T05:45:22.211Z,5.54
2023-02-01T05:50:25.425Z,5.97
2023-02-01T05:55:34.143Z,6.15
2023-02-01T06:00:37.076Z,6.35
2023-02-01T06:05:40.184Z,6.66
2023-02-01T06:10:43.370Z,6.50
2023-02-01T06:15:47.000Z,6.46
2023-02-01T06:21:01.394Z,6.35
2023-02-01T06:26:08.872Z,6.64
2023-02-01T06:31:12.152Z,7.14
2023-02-01T06:36:16.691Z,6.83
2023-02-01T06:41:21.831Z,7.28
2023-02-01T06:46:24.476Z,7.96
2023-02-01T06:51:29.643Z,8.31
2023-02-01T06:56:32.819Z,8.03
2023-02-01T07:01:36.087Z,8.06
2023-02-01T07:06:40.133Z,8.20
2023-02-01T07:11:44.618Z,8.33
2023-02-01T07:16:47.980Z,8.63
2023-02-01T07:21:53.074Z,8.80
2023-02-01T07:26:56.458Z,9.05
2023-02-01T07:31:59.737Z,9.26
2023-02-01T07:37:02.524Z,8.88
2023-02-01T07:42:05.486Z,9.36
2023-02-01T07:47:08.449Z,9.25
2023-02-01T07:52:12.558Z,9.06
2023-02-01T07:57:21.266Z,8.77
2023-02-01T08:02:24.569Z,9.73
2023-02-01T08:07:27.855Z,9.97
2023-02-01T08:12:31.012Z,10.01
2023-02-01T08:17:33.947Z,9.79
2023-02-01T08:22:36.899Z,9.88
2023-02-01T08:27:40.129Z,9.88
2023-02-01T08:32:43.178Z,9.72
2023-02-01T08:37:46.167Z,10.02
2023-02-01T08:42:52.469Z,9.98
2023-02-01T08:48:00.768Z,10.13
2023-02-01T08:53:03.688Z,10.04
2023-02-01T08:58:06.592Z,9.94
2023-02-01T09:03:12.435Z,9.71
2023-02-01T09:08:16.335Z,10.17
2023-02-01T09:13:19.657Z,9.98
2023-02-01T09:18:22.547Z,9.99
2023-02-01T09:23:26.137Z,9.40
2023-02-01T09:28:29.222Z,9.33
2023-02-01T09:33:32.692Z,8.93
2023-02-01T09:38:38.850Z,8.61
2023-02-01T09:44:00.715Z,8.72
2023-02-01T09:49:11.151Z,9.46
2023-02-01T09:54:24.226Z,9.15
2023-02-01T09:59:37.444Z,9.54
2023-02-01T10:04:40.660Z,9.37
2023-02-01T10:10:27.710Z,10.61
2023-02-01T10:16:08.740Z,9.87
2023-02-01T10:21:24.519Z,9.44
2023-02-01T10:26:34.067Z,9.86
2023-02-01T10:31:39.798Z,10.42
2023-02-01T10:37:01.059Z,10.13
2023-02-01T10:42:04.538Z,10.22
2023-02-01T10:47:09.878Z,10.32
2023-02-01T10:52:22.925Z,10.75
2023-02-01T10:57:30.924Z,10.37
2023-02-01T11:02:37.397Z,11.08
2023-02-01T11:07:47.600Z,10.94
2023-02-01T11:12:55.553Z,11.28
2023-02-01T11:18:16.983Z,11.31
2023-02-01T11:23:22.933Z,10.89
2023-02-01T11:28:33.314Z,10.83
2023-02-01T11:33:39.503Z,10.54
2023-02-01T11:38:53.870Z,11.31
2023-02-01T11:44:02.077Z,10.89
2023-02-01T11:49:26.702Z,10.42
2023-02-01T11:54:55.814Z,9.76
2023-02-01T12:00:05.188Z,9.76
2023-02-01T12:05:37.248Z,10.14
2023-02-01T12:11:09.818Z,10.52
2023-02-01T12:16:32.963Z,10.43
2023-02-01T12:21:38.581Z,9.90
2023-02-01T12:27:08.802Z,9.93
2023-02-01T12:32:41.173Z,9.49
2023-02-01T12:38:04.863Z,9.62
2023-02-01T12:43:22.852Z,10.34
2023-02-01T12:48:33.803Z,9.97
2023-02-01T12:53:46.934Z,9.52
2023-02-01T12:58:55.914Z,9.76
2023-02-01T13:04:18.617Z,9.00
2023-02-01T13:09:21.434Z,9.67
2023-02-01T13:14:33.164Z,9.03
2023-02-01T13:20:24.409Z,9.66
2023-02-01T13:26:02.587Z,9.65
2023-02-01T13:31:20.369Z,9.12
2023-02-01T13:36:37.103Z,9.20
2023-02-01T13:41:53.301Z,8.53
2023-02-01T13:47:00.185Z,8.54
2023-02-01T13:52:03.687Z,8.29
2023-02-01T13:57:28.425Z,8.46
2023-02-01T14:02:41.535Z,8.48
2023-02-01T14:08:06.080Z,8.12
2023-02-01T14:13:31.006Z,8.29
2023-02-01T14:18:38.454Z,8.30
2023-02-01T14:23:44.435Z,8.25
2023-02-01T14:29:12.776Z,8.13
2023-02-01T14:34:48.093Z,7.99
2023-02-01T14:40:01.717Z,8.20
2023-02-01T14:45:25.706Z,8.56
2023-02-01T14:50:49.073Z,9.23
2023-02-01T14:56:14.125Z,9.49
2023-02-01T15:01:35.232Z,9.29
2023-02-01T15:06:42.427Z,9.32
2023-02-01T15:12:01.219Z,8.73
2023-02-01T15:17:19.518Z,9.00
2023-02-01T15:22:22.699Z,8.51
2023-02-01T15:27:27.297Z,8.36
2023-02-01T15:32:37.823Z,9.06
2023-02-01T15:37:40.778Z,8.82
2023-02-01T15:42:55.663Z,8.32
2023-02-01T15:48:00.412Z,7.71
2023-02-01T15:53:03.790Z,7.96
2023-02-01T15:58:08.834Z,7.55
2023-02-01T16:03:45.860Z,8.03
2023-02-01T16:09:01.312Z,7.81
2023-02-01T16:14:04.663Z,8.09
2023-02-01T16:19:07.878Z,8.71
2023-02-01T16:24:10.986Z,9.03
2023-02-01T16:29:13.944Z,8.66
2023-02-01T16:34:21.261Z,8.62
2023-02-01T16:39:25.372Z,8.51
2023-02-01T16:44:28.469Z,8.35
2023-02-01T16:49:31.395Z,7.99
2023-02-01T16:54:34.330Z,8.30
2023-02-01T16:59:37.301Z,7.64
2023-02-01T17:04:40.902Z,7.61
2023-02-01T17:09:44.124Z,7.86
2023-02-01T17:14:47.200Z,7.59
2023-02-01T17:19:54.491Z,7.65
2023-02-01T17:24:57.511Z,8.01
2023-02-01T17:30:01.182Z,7.86
2023-02-01T17:35:07.464Z,7.07
2023-02-01T17:40:11.304Z,7.46
2023-02-01T17:45:38.829Z,7.59
2023-02-01T17:50:42.281Z,6.74
2023-02-01T17:55:46.692Z,6.91
2023-02-01T18:00:50.611Z,7.12
2023-02-01T18:05:56.002Z,6.83
2023-02-01T18:11:01.445Z,7.65
2023-02-01T18:16:04.953Z,7.63
2023-02-01T18:21:08.125Z,8.02
2023-02-01T18:26:16.528Z,8.39
2023-02-01T18:31:30.215Z,8.57
2023-02-01T18:36:33.311Z,8.71
2023-02-01T18:41:36.701Z,8.43
2023-02-01T18:46:39.806Z,8.42
2023-02-01T18:51:43.813Z,8.45
2023-02-01T18:56:46.752Z,6.96
2023-02-01T19:01:49.967Z,7.02
2023-02-01T19:06:52.923Z,7.10
2023-02-01T19:11:55.871Z,7.56
2023-02-01T19:16:58.963Z,7.82
2023-02-01T19:22:01.653Z,7.79
2023-02-01T19:27:04.721Z,7.26
2023-02-01T19:32:07.864Z,7.63
2023-02-01T19:37:11.065Z,7.40
2023-02-01T19:42:14.565Z,6.99
2023-02-01T19:47:17.510Z,7.15
2023-02-01T19:52:20.581Z,6.83
2023-02-01T19:57:23.783Z,6.59
2023-02-01T20:02:28.898Z,6.70
2023-02-01T20:07:31.907Z,6.33
2023-02-01T20:12:35.138Z,6.73
2023-02-01T20:17:38.248Z,7.26
2023-02-01T20:22:41.217Z,6.57
2023-02-01T20:27:44.956Z,7.11
2023-02-01T20:32:52.345Z,6.83
2023-02-01T20:37:57.401Z,6.77
2023-02-01T20:43:00.318Z,7.25
2023-02-01T20:48:03.387Z,7.27
2023-02-01T20:53:06.822Z,7.22
2023-02-01T20:58:09.828Z,7.37
2023-02-01T21:03:13.464Z,7.36
2023-02-01T21:08:17.055Z,7.57
2023-02-01T21:13:20.470Z,8.03
2023-02-01T21:18:24.269Z,8.30
2023-02-01T21:23:27.176Z,8.27
2023-02-01T21:28:30.293Z,7.75
2023-02-01T21:33:33.695Z,8.13
2023-02-01T21:38:36.752Z,8.49
2023-02-01T21:43:40.023Z,7.96
2023-02-01T21:49:05.110Z,7.24
2023-02-01T21:54:11.621Z,7.28
2023-02-01T21:59:14.538Z,7.45
2023-02-01T22:04:18.163Z,7.46
2023-02-01T22:09:26.331Z,7.56
2023-02-01T22:14:29.268Z,7.74
2023-02-01T22:19:32.268Z,7.46
2023-02-01T22:24:36.332Z,7.57
2023-02-01T22:29:39.289Z,7.57
2023-02-01T22:34:42.913Z,7.14
2023-02-01T22:39:46.470Z,7.12
2023-02-01T22:44:49.507Z,7.32
2023-02-01T22:49:52.553Z,7.23
2023-02-01T22:54:55.514Z,7.47
2023-02-01T22:59:58.547Z,7.65
2023-02-01T23:05:01.512Z,7.37
2023-02-01T23:10:06.382Z,7.65
2023-02-01T23:15:09.978Z,7.45
2023-02-01T23:20:16.165Z,7.33
2023-02-01T23:25:19.593Z,7.32
2023-02-01T23:30:22.648Z,6.79
2023-02-01T23:35:25.921Z,7.15
2023-02-01T23:40:29.147Z,7.58
2023-02-01T23:45:32.212Z,7.83
2023-02-01T23:50:35.134Z,7.27
2023-02-01T23:55:38.141Z,6.49
